EDT,Max TemperatureF,Mean TemperatureF,Min TemperatureF,Max Dew PointF,MeanDew PointF,Min DewpointF,Max Humidity, Mean Humidity, Min Humidity, Max Sea Level PressureIn, Mean Sea Level PressureIn, Min Sea Level PressureIn, Max VisibilityMiles, Mean VisibilityMiles, Min VisibilityMiles, Max Wind SpeedMPH, Mean Wind SpeedMPH, Max Gust SpeedMPH,PrecipitationIn, CloudCover, Events, WindDirDegrees
2013-9-1,59,55,51,57,54,52,100,97,82,,,,4,0,0,31,16,37,0.63,6,Fog-Rain,255
2013-9-2,53,52,50,54,53,50,100,100,94,,,,5,0,0,39,16,51,0.74,8,Fog-Rain-Thunderstorm,187
2013-9-3,51,48,44,52,47,45,100,94,76,,,,20,1,0,41,29,45,0.05,4,Fog-Rain,262
2013-9-4,44,42,39,45,41,32,100,96,61,,,,0,0,0,61,46,68,0.98,3,Fog-Rain,297
2013-9-5,41,34,26,41,31,27,100,95,75,,,,0,0,0,53,38,56,0.05,5,Fog-Rain,314
2013-9-6,44,35,26,30,22,0,100,66,15,,,,0,0,0,47,33,46,0.00,1,Fog,318
2013-9-7,50,44,39,43,33,18,100,68,34,,,,0,0,0,61,42,60,0.22,6,Fog-Rain,302
2013-9-8,41,34,26,41,33,26,100,100,98,,,,0,0,0,64,43,78,0.82,6,Fog-Rain,324
2013-9-9,44,35,26,27,12,-15,100,39,10,,,,0,0,0,48,38,46,0.00,5,Fog,309
2013-9-10,59,49,41,59,50,34,100,99,76,,,,0,0,0,43,37,51,0.31,3,Fog-Rain,286
2013-9-11,62,58,51,61,57,52,100,96,77,,,,20,4,0,66,45,83,0.00,5,Fog-Rain-Hail-Thunderstorm,283
2013-9-12,55,50,46,55,52,46,100,98,77,,,,0,0,0,51,37,52,2.25,8,Fog-Rain-Thunderstorm,275
2013-9-13,46,42,37,46,42,37,100,99,81,,,,1,0,0,31,21,41,0.28,8,Fog-Rain,337
2013-9-14,41,36,30,39,36,30,100,99,93,,,,0,0,0,28,14,26,0.07,4,Fog-Rain,311
2013-9-15,42,36,30,37,25,5,100,65,28,,,,0,0,0,39,28,40,0.00,3,Fog,301
2013-9-16,37,28,19,37,29,16,100,99,80,,,,0,0,0,52,39,56,0.15,8,Fog-Rain,314
2013-9-17,46,32,19,30,19,9,100,62,28,,,,0,0,0,51,31,60,0.00,1,Fog,355
2013-9-18,50,44,39,16,7,-4,33,22,11,,,,,,,36,23,,0.00,1,,296
2013-9-19,51,48,46,37,10,-9,71,23,8,,,,,,,25,21,,0.00,1,,290
2013-9-20,57,50,44,45,26,0,81,43,12,,,,,,,40,14,25,0.00,3,,244
2013-9-21,48,45,42,46,29,10,100,60,25,,,,0,0,0,52,43,64,0.32,5,Fog-Rain,206
2013-9-22,48,38,28,48,39,28,100,100,100,,,,0,0,0,64,41,74,1.55,,Fog-Rain,274
2013-9-23,26,24,23,27,24,23,100,100,100,,,,0,0,0,66,58,74,0.01,,Fog-Snow,310
2013-9-24,32,28,24,32,28,24,100,99,93,,,,0,0,0,72,60,79,0.01,2,Fog,328
2013-9-25,39,36,32,36,31,21,100,87,49,,,,0,0,0,51,40,56,0.00,1,Fog,347
2013-9-26,42,37,32,39,32,19,93,77,48,,,,,,,28,19,,0.00,0,,54
2013-9-27,44,40,35,39,36,27,100,89,49,,,,2,1,0,26,16,24,0.00,3,Fog,53
2013-9-28,48,42,37,39,33,21,100,70,39,,,,0,0,0,17,9,,0.00,1,Fog,40
2013-9-29,51,48,44,43,11,-18,82,31,6,,,,1,1,0,13,8,,0.00,1,,150
2013-9-30,51,46,42,43,9,-20,87,35,6,,,,,,,12,7,,0.00,1,,109